Wednesday, May 24, 2017, 4:19 AM EDT
Back to Local

KHWV, Shirley Brookhaven Airport

Location: Shirley, NY, United States Lat: 40.817
Local Time: 4:19 AM EDT ( 8:19 GMT) Lon: -72.867
Time Zone: US/Eastern Elev: 82 ft

Show me the last for .
Show Coded

Time T Td Feel RH Dir Speed Gust Alt SLP Vis Weather Sky Remarks
2017-05-24 03:56 55 55 - 100 - Calm - 29.76 29.76 7 -RA BKN046 OVC100 1-hr Precip Total: Trace
2017-05-24 02:56 56 53 - 90 130° 3 - 29.76 29.76 10 -RA FEW060 SCT090 OVC110 1-hr Precip Total: Trace
2017-05-24 01:56 56 54 - 93 - Calm - 29.77 29.77 10 BKN110 6-hr Min Temp (2am): 55.9°F
6-hr Max Temp (2am): 60.1°F
2017-05-24 00:56 56 53 - 90 - Calm - 29.78 29.78 10 CLR 24-hr Min Temp (1am): 55.0°F
24-hr Max Temp (1am): 69.1°F
2017-05-23 23:56 56 53 - 90 90° 3 - 29.80 29.80 10 CLR None
2017-05-23 22:56 58 53 - 83 - Calm - 29.84 29.83 10 None
2017-05-23 21:56 59 52 - 77 190° 3 - 29.85 29.85 10 CLR None
2017-05-23 20:56 60 52 - 74 210° 3 - 29.85 29.85 10 CLR None
2017-05-23 19:56 60 51 - 72 200° 5 - 29.85 29.85 10 CLR 6-hr Min Temp (8pm): 60.1°F
6-hr Max Temp (8pm): 69.1°F
2017-05-23 18:56 63 51 - 65 190° 6 - 29.85 29.84 10 CLR None
2017-05-23 17:56 64 50 - 60 210° 5 - 29.85 29.84 10 CLR None
2017-05-23 16:56 66 51 - 58 190° 7 - 29.86 29.86 10 CLR None
2017-05-23 15:56 69 49 - 48 320° 3 - 29.87 29.87 10 CLR None
2017-05-23 14:56 69 51 - 52 360° 5 - 29.89 29.88 10 CLR None
2017-05-23 13:56 67 51 - 56 360° 8 - 29.90 29.90 10 CLR 6-hr Min Temp (2pm): 59.0°F
6-hr Max Temp (2pm): 66.9°F
2017-05-23 12:56 66 50 - 56 350° 7 - 29.91 29.91 10 CLR None
2017-05-23 11:56 64 51 - 62 10° 7 - 29.92 29.92 10 CLR None
2017-05-23 10:56 63 50 - 62 360° 9 - 29.94 29.94 10 CLR None
2017-05-23 09:56 63 52 - 67 10° 8 - 29.94 29.93 10 CLR None
2017-05-23 08:56 60 52 - 74 10° 9 - 29.94 29.94 10 CLR None
2017-05-23 07:56 59 52 - 77 350° 14 - 29.95 29.95 10 CLR 6-hr Min Temp (8am): 55.0°F
6-hr Max Temp (8am): 59.0°F
2017-05-23 06:56 56 54 - 93 360° 8 - 29.95 29.95 10 CLR None
2017-05-23 05:56 55 55 - 100 360° 6 - 29.94 29.94 10 CLR None
2017-05-23 04:56 55 55 - 100 20° 3 - 29.93 29.92 10 CLR None
2017-05-23 04:37 56 56 - 100 350° 5 - 29.93 - 10 SCT009 None

Support USWX by starting your Amazon purchase here.